Time;durP1;ratioP1;P1;durP2;ratioP2;P2;SDS_P1;SDS_P2;PMS_P1;PMS_P2;Temp;Humidity;BMP_temperature;BMP_pressure;BME280_temperature;BME280_humidity;BME280_pressure;Samples;Min_cycle;Max_cycle;Signal;HPM_P1;HPM_P2
2024/02/23 00:01:04;;;;;;;0.60;0.20;;;;;;;;;;5052704;28;20417;-81
2024/02/23 00:03:30;;;;;;;4.57;0.30;;;;;;;;;;5060521;28;20488;-79
2024/02/23 00:05:56;;;;;;;2.67;0.33;;;;;;;;;;5060843;28;20499;-79
2024/02/23 00:08:22;;;;;;;1.57;0.27;;;;;;;;;;5061523;28;20174;-79
2024/02/23 00:10:47;;;;;;;2.10;0.53;;;;;;;;;;5060962;28;20172;-79
2024/02/23 00:13:13;;;;;;;1.00;0.30;;;;;;;;;;5062761;28;20455;-80
2024/02/23 00:15:39;;;;;;;0.80;0.20;;;;;;;;;;5060882;28;20496;-81
2024/02/23 00:18:06;;;;;;;2.10;0.73;;;;;;;;;;5061363;28;20403;-77
2024/02/23 00:20:32;;;;;;;1.70;0.20;;;;;;;;;;5062426;28;20622;-79
2024/02/23 00:22:58;;;;;;;0.50;0.20;;;;;;;;;;5061282;28;20513;-79
2024/02/23 00:25:24;;;;;;;0.50;0.20;;;;;;;;;;5061336;28;20503;-81
2024/02/23 00:27:50;;;;;;;0.63;0.20;;;;;;;;;;5071649;28;20545;-78
2024/02/23 00:30:16;;;;;;;1.13;0.20;;;;;;;;;;5072180;28;20810;-81
2024/02/23 00:32:42;;;;;;;0.73;0.20;;;;;;;;;;5072250;28;20910;-80
2024/02/23 00:35:07;;;;;;;1.07;0.50;;;;;;;;;;5071652;28;20830;-80
2024/02/23 00:37:35;;;;;;;0.50;0.20;;;;;;;;;;5070893;28;20476;-81
2024/02/23 00:40:03;;;;;;;1.50;0.30;;;;;;;;;;5072129;28;20415;-78
2024/02/23 00:42:29;;;;;;;0.70;0.53;;;;;;;;;;5071923;28;20556;-79
2024/02/23 00:44:55;;;;;;;1.43;0.30;;;;;;;;;;5072024;28;20418;-78
2024/02/23 00:47:21;;;;;;;2.20;0.30;;;;;;;;;;5071886;28;20788;-78
2024/02/23 00:49:47;;;;;;;1.10;0.20;;;;;;;;;;5056831;28;20439;-80
2024/02/23 00:52:13;;;;;;;1.93;0.20;;;;;;;;;;5055778;28;20415;-80
2024/02/23 00:54:39;;;;;;;1.27;0.30;;;;;;;;;;5055663;28;20479;-79
2024/02/23 00:57:05;;;;;;;1.70;0.30;;;;;;;;;;5055573;28;20912;-79
2024/02/23 00:59:31;;;;;;;1.20;0.40;;;;;;;;;;5071075;28;20183;-78
2024/02/23 01:01:57;;;;;;;1.77;0.30;;;;;;;;;;5055605;28;20415;-78
2024/02/23 01:04:26;;;;;;;1.90;0.37;;;;;;;;;;5055205;28;20871;-80
2024/02/23 01:06:52;;;;;;;2.20;0.40;;;;;;;;;;5055431;28;20416;-79
2024/02/23 01:09:20;;;;;;;1.50;0.40;;;;;;;;;;5055533;28;20760;-82
2024/02/23 01:11:46;;;;;;;0.60;0.20;;;;;;;;;;5070877;28;20413;-81
2024/02/23 01:14:15;;;;;;;1.13;0.30;;;;;;;;;;5055278;28;20478;-78
2024/02/23 01:16:41;;;;;;;0.73;0.20;;;;;;;;;;5055296;28;20416;-78
2024/02/23 01:19:07;;;;;;;0.40;0.20;;;;;;;;;;5055280;28;20415;-79
2024/02/23 01:21:33;;;;;;;0.30;0.20;;;;;;;;;;5054827;28;20397;-79
2024/02/23 01:24:00;;;;;;;0.30;0.20;;;;;;;;;;5055150;28;20544;-80
2024/02/23 01:26:27;;;;;;;1.60;0.30;;;;;;;;;;5055208;28;20407;-83
2024/02/23 01:28:54;;;;;;;0.30;0.20;;;;;;;;;;5055084;28;20467;-78
2024/02/23 01:31:19;;;;;;;0.40;0.20;;;;;;;;;;5066857;28;20790;-80
2024/02/23 01:33:50;;;;;;;1.07;0.20;;;;;;;;;;5074857;28;20477;-78
2024/02/23 01:36:16;;;;;;;0.97;0.20;;;;;;;;;;5074675;28;20406;-82
2024/02/23 01:38:42;;;;;;;0.30;0.27;;;;;;;;;;5074953;28;20811;-79
2024/02/23 01:41:08;;;;;;;0.83;0.37;;;;;;;;;;5074981;28;20456;-78
2024/02/23 01:43:34;;;;;;;0.80;0.20;;;;;;;;;;5074903;28;20439;-81
2024/02/23 01:46:00;;;;;;;0.30;0.20;;;;;;;;;;5073547;28;20418;-77
2024/02/23 01:48:26;;;;;;;0.30;0.20;;;;;;;;;;5074877;28;20432;-80
2024/02/23 01:50:54;;;;;;;0.30;0.20;;;;;;;;;;5074352;28;20435;-80
2024/02/23 01:53:25;;;;;;;0.40;0.37;;;;;;;;;;5074658;28;20871;-78
2024/02/23 01:55:51;;;;;;;0.50;0.20;;;;;;;;;;5073348;28;20481;-78
2024/02/23 01:58:17;;;;;;;0.97;0.20;;;;;;;;;;5074516;28;20425;-80
2024/02/23 02:00:43;;;;;;;0.60;0.20;;;;;;;;;;5074633;28;20453;-77
2024/02/23 02:03:12;;;;;;;0.53;0.30;;;;;;;;;;5074425;28;20515;-77
2024/02/23 02:05:38;;;;;;;0.40;0.20;;;;;;;;;;5074119;28;20411;-80
2024/02/23 02:08:04;;;;;;;0.97;0.27;;;;;;;;;;5073042;28;20895;-80
2024/02/23 02:10:31;;;;;;;0.70;0.20;;;;;;;;;;5074119;28;20522;-79
2024/02/23 02:13:02;;;;;;;0.83;0.20;;;;;;;;;;5074296;28;20603;-78
2024/02/23 02:15:28;;;;;;;0.50;0.20;;;;;;;;;;5074190;28;20450;-77
2024/02/23 02:17:54;;;;;;;0.40;0.20;;;;;;;;;;5074132;28;20507;-77
2024/02/23 02:20:24;;;;;;;0.30;0.20;;;;;;;;;;5072656;28;20914;-78
2024/02/23 02:22:50;;;;;;;0.30;0.20;;;;;;;;;;5074125;28;20410;-78
2024/02/23 02:25:16;;;;;;;0.30;0.20;;;;;;;;;;5074137;28;20808;-77
2024/02/23 02:27:45;;;;;;;0.30;0.20;;;;;;;;;;5074052;28;20849;-78
2024/02/23 02:30:11;;;;;;;0.30;0.20;;;;;;;;;;5073755;28;20414;-78
2024/02/23 02:32:37;;;;;;;0.40;0.20;;;;;;;;;;5073913;28;20626;-78
2024/02/23 02:35:03;;;;;;;0.50;0.20;;;;;;;;;;5073447;28;20507;-79
2024/02/23 02:37:29;;;;;;;0.40;0.40;;;;;;;;;;5070977;28;20842;-79
2024/02/23 02:39:55;;;;;;;0.67;0.20;;;;;;;;;;5053671;28;20414;-77
2024/02/23 02:42:21;;;;;;;1.23;0.30;;;;;;;;;;5053724;28;20929;-78
2024/02/23 02:44:47;;;;;;;1.60;0.20;;;;;;;;;;5053708;28;20414;-78
2024/02/23 02:47:12;;;;;;;0.30;0.20;;;;;;;;;;5053697;28;20410;-78
2024/02/23 02:49:40;;;;;;;0.30;0.23;;;;;;;;;;5053274;28;20758;-78
2024/02/23 02:52:06;;;;;;;0.50;0.20;;;;;;;;;;5053528;28;20434;-77
2024/02/23 02:54:32;;;;;;;0.60;0.20;;;;;;;;;;5053418;28;20484;-80
2024/02/23 02:56:58;;;;;;;1.00;0.20;;;;;;;;;;5054502;28;20414;-79
2024/02/23 02:59:24;;;;;;;0.30;0.20;;;;;;;;;;5072103;28;20977;-77
2024/02/23 03:01:50;;;;;;;1.50;0.23;;;;;;;;;;5073282;28;20401;-77
2024/02/23 03:04:16;;;;;;;0.70;0.20;;;;;;;;;;5071612;28;20463;-77
2024/02/23 03:06:42;;;;;;;0.87;0.40;;;;;;;;;;5073249;28;20474;-78
2024/02/23 03:09:08;;;;;;;0.40;0.20;;;;;;;;;;5072744;28;20886;-78
2024/02/23 03:11:34;;;;;;;0.50;0.20;;;;;;;;;;5073159;28;21054;-78
2024/02/23 03:14:00;;;;;;;1.47;0.20;;;;;;;;;;5073038;28;20476;-78
2024/02/23 03:16:26;;;;;;;4.83;0.20;;;;;;;;;;5071780;28;20412;-77
2024/02/23 03:18:54;;;;;;;1.27;0.70;;;;;;;;;;5072832;28;20413;-77
2024/02/23 03:21:20;;;;;;;0.97;0.20;;;;;;;;;;5071663;28;20437;-77
2024/02/23 03:23:46;;;;;;;1.70;0.30;;;;;;;;;;5072846;28;20970;-78
2024/02/23 03:26:12;;;;;;;0.40;0.20;;;;;;;;;;5072973;28;20433;-80
2024/02/23 03:28:38;;;;;;;2.20;0.20;;;;;;;;;;5072876;28;20412;-79
2024/02/23 03:31:04;;;;;;;0.63;0.20;;;;;;;;;;5071462;28;20467;-79
2024/02/23 03:33:29;;;;;;;0.50;0.30;;;;;;;;;;5072714;28;20469;-80
2024/02/23 03:35:56;;;;;;;1.20;0.27;;;;;;;;;;5072358;28;20412;-77
2024/02/23 03:38:22;;;;;;;0.40;0.20;;;;;;;;;;5072811;28;20412;-78
2024/02/23 03:40:47;;;;;;;1.07;0.20;;;;;;;;;;5072820;28;20765;-79
2024/02/23 03:43:13;;;;;;;0.33;0.20;;;;;;;;;;5072783;28;20413;-79
2024/02/23 03:45:39;;;;;;;0.30;0.20;;;;;;;;;;5072769;28;20407;-80
2024/02/23 03:48:05;;;;;;;1.07;0.20;;;;;;;;;;5072727;28;20760;-78
2024/02/23 03:50:31;;;;;;;1.00;0.20;;;;;;;;;;5072321;28;20472;-79
2024/02/23 03:52:57;;;;;;;0.30;0.20;;;;;;;;;;5072552;28;20419;-78
2024/02/23 03:55:23;;;;;;;0.40;0.20;;;;;;;;;;5072690;28;20417;-77
2024/02/23 03:57:49;;;;;;;1.23;0.20;;;;;;;;;;5072608;28;20415;-78
2024/02/23 04:00:15;;;;;;;1.40;0.20;;;;;;;;;;5072639;28;20506;-81
2024/02/23 04:02:41;;;;;;;0.40;0.20;;;;;;;;;;5072590;28;20403;-78
2024/02/23 04:05:07;;;;;;;0.30;0.20;;;;;;;;;;5072228;28;20419;-80
2024/02/23 04:07:33;;;;;;;2.87;0.20;;;;;;;;;;5072553;28;20416;-77
2024/02/23 04:09:59;;;;;;;2.43;0.30;;;;;;;;;;5072415;28;20415;-80
2024/02/23 04:12:25;;;;;;;0.30;0.20;;;;;;;;;;5072531;28;20494;-79
2024/02/23 04:14:51;;;;;;;0.60;0.20;;;;;;;;;;5072392;28;20470;-82
2024/02/23 04:17:17;;;;;;;0.70;0.20;;;;;;;;;;5072444;28;20943;-79
2024/02/23 04:19:43;;;;;;;0.90;0.30;;;;;;;;;;5072127;28;20763;-83
2024/02/23 04:22:09;;;;;;;0.97;0.20;;;;;;;;;;5075385;28;20404;-81
2024/02/23 04:24:36;;;;;;;0.60;0.40;;;;;;;;;;5074097;28;20423;-79
2024/02/23 04:27:06;;;;;;;0.90;0.27;;;;;;;;;;5076102;28;20491;-79
2024/02/23 04:29:32;;;;;;;0.73;0.20;;;;;;;;;;5076195;28;20407;-77
2024/02/23 04:31:58;;;;;;;0.40;0.20;;;;;;;;;;5076031;28;20497;-82
2024/02/23 04:34:24;;;;;;;0.60;0.47;;;;;;;;;;5075684;28;20474;-78
2024/02/23 04:36:50;;;;;;;0.30;0.20;;;;;;;;;;5074821;28;20418;-78
2024/02/23 04:39:16;;;;;;;3.07;0.30;;;;;;;;;;5076028;28;20929;-77
2024/02/23 04:41:42;;;;;;;0.60;0.30;;;;;;;;;;5075930;28;20418;-79
2024/02/23 04:44:08;;;;;;;0.60;0.30;;;;;;;;;;5075892;28;20420;-77
2024/02/23 04:46:34;;;;;;;0.40;0.37;;;;;;;;;;5075889;28;20413;-76
2024/02/23 04:49:00;;;;;;;2.80;0.20;;;;;;;;;;5075504;28;20470;-77
2024/02/23 04:51:27;;;;;;;0.40;0.20;;;;;;;;;;5075781;28;20410;-76
2024/02/23 04:53:58;;;;;;;1.00;0.60;;;;;;;;;;5075484;28;20456;-77
2024/02/23 04:56:24;;;;;;;1.93;0.30;;;;;;;;;;5075741;28;20425;-80
2024/02/23 04:58:51;;;;;;;4.33;0.63;;;;;;;;;;5075626;28;20958;-81
2024/02/23 05:01:17;;;;;;;1.07;0.23;;;;;;;;;;5075576;28;20407;-77
2024/02/23 05:03:43;;;;;;;1.43;0.30;;;;;;;;;;5073982;28;20405;-77
2024/02/23 05:06:09;;;;;;;0.60;0.20;;;;;;;;;;5075379;28;20412;-79
2024/02/23 05:08:35;;;;;;;2.63;0.47;;;;;;;;;;5075371;28;20399;-81
2024/02/23 05:11:01;;;;;;;4.57;1.00;;;;;;;;;;5075477;28;20416;-80
2024/02/23 05:13:27;;;;;;;1.97;0.70;;;;;;;;;;5075287;28;20463;-79
2024/02/23 05:15:56;;;;;;;8.73;0.97;;;;;;;;;;5075317;28;20447;-80
2024/02/23 05:18:21;;;;;;;2.43;0.57;;;;;;;;;;5075138;28;20427;-77
2024/02/23 05:20:47;;;;;;;1.33;0.60;;;;;;;;;;5074847;28;20499;-78
2024/02/23 05:23:15;;;;;;;4.10;0.73;;;;;;;;;;5073936;28;20507;-77
2024/02/23 05:25:41;;;;;;;3.80;0.90;;;;;;;;;;5073817;28;20452;-79
2024/02/23 05:28:07;;;;;;;3.90;0.40;;;;;;;;;;5075031;28;20447;-78
2024/02/23 05:30:33;;;;;;;3.23;1.13;;;;;;;;;;5073630;28;20528;-78
2024/02/23 05:32:59;;;;;;;1.47;0.60;;;;;;;;;;5074528;28;20411;-79
2024/02/23 05:35:26;;;;;;;0.87;0.70;;;;;;;;;;5074641;28;20427;-77
2024/02/23 05:37:52;;;;;;;1.30;0.30;;;;;;;;;;5074705;28;20765;-77
2024/02/23 05:40:18;;;;;;;1.43;0.60;;;;;;;;;;5074797;28;20420;-80
2024/02/23 05:42:44;;;;;;;2.70;0.70;;;;;;;;;;5074820;28;20412;-79
2024/02/23 05:45:10;;;;;;;4.87;0.70;;;;;;;;;;5074803;28;20412;-77
2024/02/23 05:47:58;;;;;;;2.50;0.60;;;;;;;;;;5074827;28;20415;-78
2024/02/23 05:50:23;;;;;;;1.23;0.53;;;;;;;;;;5074066;28;20422;-83
2024/02/23 05:52:49;;;;;;;2.97;0.97;;;;;;;;;;5074734;28;20912;-81
2024/02/23 05:55:15;;;;;;;1.20;0.40;;;;;;;;;;5073248;28;20473;-77
2024/02/23 05:57:41;;;;;;;1.20;0.50;;;;;;;;;;5074495;28;20412;-77
2024/02/23 06:00:07;;;;;;;1.00;0.80;;;;;;;;;;5074397;28;20431;-79
2024/02/23 06:02:33;;;;;;;1.40;0.37;;;;;;;;;;5074328;28;20449;-77
2024/02/23 06:04:59;;;;;;;2.50;0.50;;;;;;;;;;5074065;28;20420;-79
2024/02/23 06:07:28;;;;;;;1.73;0.30;;;;;;;;;;5049331;28;20905;-77
2024/02/23 06:09:55;;;;;;;1.33;0.20;;;;;;;;;;5043194;28;20511;-79
2024/02/23 06:12:21;;;;;;;4.13;0.33;;;;;;;;;;5045318;28;20409;-77
2024/02/23 06:14:47;;;;;;;4.73;0.50;;;;;;;;;;5048141;28;20476;-77
2024/02/23 06:17:15;;;;;;;2.80;0.50;;;;;;;;;;5043179;28;20446;-76
2024/02/23 06:19:41;;;;;;;3.20;0.30;;;;;;;;;;5051535;28;20939;-77
2024/02/23 06:22:12;;;;;;;3.30;0.37;;;;;;;;;;5051763;28;20424;-82
2024/02/23 06:24:38;;;;;;;0.80;0.40;;;;;;;;;;5054066;28;20418;-81
2024/02/23 06:27:06;;;;;;;0.73;0.30;;;;;;;;;;5054016;28;20839;-82
2024/02/23 06:29:32;;;;;;;1.83;0.30;;;;;;;;;;5054180;28;20412;-77
2024/02/23 06:32:02;;;;;;;5.70;0.60;;;;;;;;;;5066795;28;20455;-76
2024/02/23 06:34:28;;;;;;;1.83;0.40;;;;;;;;;;5053837;28;20534;-78
2024/02/23 06:36:54;;;;;;;2.53;0.70;;;;;;;;;;5069592;28;20412;-77
2024/02/23 06:39:20;;;;;;;0.80;0.60;;;;;;;;;;5054294;28;20410;-78
2024/02/23 06:41:46;;;;;;;2.33;0.33;;;;;;;;;;5054165;28;20417;-76
2024/02/23 06:44:12;;;;;;;2.97;0.60;;;;;;;;;;5053292;28;20526;-79
2024/02/23 06:46:38;;;;;;;2.87;0.70;;;;;;;;;;5054054;28;20459;-79
2024/02/23 06:49:04;;;;;;;1.67;0.77;;;;;;;;;;5053857;28;20428;-76
2024/02/23 06:51:31;;;;;;;0.93;0.83;;;;;;;;;;5053954;28;20424;-78
2024/02/23 06:53:57;;;;;;;2.07;0.70;;;;;;;;;;5053918;28;20526;-77
2024/02/23 06:56:23;;;;;;;3.00;0.90;;;;;;;;;;5053949;28;20409;-77
2024/02/23 06:58:49;;;;;;;2.10;1.03;;;;;;;;;;5068965;28;20432;-76
2024/02/23 07:01:37;;;;;;;2.20;0.60;;;;;;;;;;5068921;28;20412;-81
2024/02/23 07:04:03;;;;;;;1.90;0.60;;;;;;;;;;5068644;28;20405;-79
2024/02/23 07:06:31;;;;;;;1.80;0.67;;;;;;;;;;5053732;28;20497;-81
2024/02/23 07:08:57;;;;;;;4.43;0.97;;;;;;;;;;5053607;28;20436;-84
2024/02/23 07:11:23;;;;;;;2.57;0.47;;;;;;;;;;5053638;28;20512;-77
2024/02/23 07:13:49;;;;;;;3.70;0.73;;;;;;;;;;5053268;28;20547;-81
2024/02/23 07:16:15;;;;;;;2.93;0.50;;;;;;;;;;5053321;28;20406;-83
2024/02/23 07:18:42;;;;;;;1.90;0.60;;;;;;;;;;5053032;28;20402;-83
2024/02/23 07:21:08;;;;;;;5.10;1.40;;;;;;;;;;5053038;28;20414;-83
2024/02/23 07:23:34;;;;;;;4.33;0.63;;;;;;;;;;5053254;28;20423;-83
2024/02/23 07:26:00;;;;;;;4.00;0.60;;;;;;;;;;5057550;28;20419;-81
2024/02/23 07:28:26;;;;;;;1.60;0.43;;;;;;;;;;5053060;28;20419;-78
2024/02/23 07:30:52;;;;;;;3.60;0.80;;;;;;;;;;5052645;28;20470;-81
2024/02/23 07:33:21;;;;;;;2.70;0.40;;;;;;;;;;5051251;28;20622;-79
2024/02/23 07:35:47;;;;;;;1.80;0.50;;;;;;;;;;5035255;28;20854;-84
2024/02/23 07:38:14;;;;;;;4.40;0.60;;;;;;;;;;5035177;28;20909;-82
2024/02/23 07:40:40;;;;;;;4.20;0.67;;;;;;;;;;5053172;28;20908;-82
2024/02/23 07:43:06;;;;;;;2.83;0.30;;;;;;;;;;5053056;28;20418;-82
2024/02/23 07:45:34;;;;;;;6.93;0.50;;;;;;;;;;5052853;28;20885;-83
2024/02/23 07:48:00;;;;;;;2.00;0.60;;;;;;;;;;5052820;28;20465;-83
2024/02/23 07:50:26;;;;;;;2.00;0.60;;;;;;;;;;5052551;28;20420;-82
2024/02/23 07:52:52;;;;;;;2.87;0.30;;;;;;;;;;5051831;28;20431;-81
2024/02/23 07:55:18;;;;;;;2.20;0.60;;;;;;;;;;5052378;28;20810;-80
2024/02/23 07:57:44;;;;;;;2.97;0.60;;;;;;;;;;5052608;28;20478;-79
2024/02/23 08:00:10;;;;;;;4.07;1.37;;;;;;;;;;5052567;28;20411;-79
2024/02/23 08:02:36;;;;;;;3.23;0.50;;;;;;;;;;5055133;28;20414;-76
2024/02/23 08:05:03;;;;;;;1.63;0.40;;;;;;;;;;5068668;28;20484;-75
2024/02/23 08:07:30;;;;;;;2.10;0.83;;;;;;;;;;5072504;28;20449;-80
2024/02/23 08:09:57;;;;;;;2.70;0.50;;;;;;;;;;5072560;28;20957;-76
2024/02/23 08:12:23;;;;;;;2.70;0.50;;;;;;;;;;5071191;28;20434;-78
2024/02/23 08:14:50;;;;;;;1.67;0.57;;;;;;;;;;5071055;28;20841;-76
2024/02/23 08:17:16;;;;;;;1.83;0.47;;;;;;;;;;5072446;28;20824;-80
2024/02/23 08:19:45;;;;;;;1.33;0.20;;;;;;;;;;5072106;28;20416;-77
2024/02/23 08:22:11;;;;;;;3.10;1.30;;;;;;;;;;5072338;28;20869;-79
2024/02/23 08:24:36;;;;;;;3.93;0.67;;;;;;;;;;5072122;28;20427;-80
2024/02/23 08:27:02;;;;;;;1.27;0.60;;;;;;;;;;5056450;28;20413;-81
2024/02/23 08:29:28;;;;;;;3.90;0.40;;;;;;;;;;5052108;28;20448;-77
2024/02/23 08:31:54;;;;;;;4.60;0.53;;;;;;;;;;5068993;28;20462;-77
2024/02/23 08:34:20;;;;;;;4.53;0.33;;;;;;;;;;5071724;28;20561;-80
2024/02/23 08:36:46;;;;;;;2.03;0.37;;;;;;;;;;5072104;28;20443;-80
2024/02/23 08:39:12;;;;;;;4.73;0.70;;;;;;;;;;5072289;28;20421;-80
2024/02/23 08:41:39;;;;;;;2.53;0.53;;;;;;;;;;5072332;28;20309;-80
2024/02/23 08:44:05;;;;;;;4.40;0.50;;;;;;;;;;5072083;28;20760;-81
2024/02/23 08:46:31;;;;;;;1.80;0.67;;;;;;;;;;5072147;28;20413;-80
2024/02/23 08:48:57;;;;;;;4.30;0.77;;;;;;;;;;5071452;28;20497;-79
2024/02/23 08:51:22;;;;;;;3.20;0.70;;;;;;;;;;5071773;28;20441;-78
2024/02/23 08:53:48;;;;;;;2.20;0.40;;;;;;;;;;5071730;28;20861;-81
2024/02/23 08:56:16;;;;;;;2.57;0.63;;;;;;;;;;5070635;28;20411;-77
2024/02/23 08:58:42;;;;;;;3.13;0.50;;;;;;;;;;5070774;28;20256;-78
2024/02/23 09:01:09;;;;;;;3.03;0.37;;;;;;;;;;5071999;28;20511;-76
2024/02/23 09:03:35;;;;;;;2.20;0.60;;;;;;;;;;5071573;28;20411;-76
2024/02/23 09:06:00;;;;;;;2.83;0.40;;;;;;;;;;5071729;28;20429;-80
2024/02/23 09:08:27;;;;;;;2.20;0.60;;;;;;;;;;5074547;28;20186;-81
2024/02/23 09:10:52;;;;;;;3.80;0.50;;;;;;;;;;5075173;28;20171;-76
2024/02/23 09:13:18;;;;;;;1.90;0.30;;;;;;;;;;5075273;28;20418;-79
2024/02/23 09:15:44;;;;;;;2.97;0.53;;;;;;;;;;5075307;28;20219;-79
2024/02/23 09:18:10;;;;;;;3.47;0.37;;;;;;;;;;5074586;28;20429;-77
2024/02/23 09:20:36;;;;;;;3.03;0.20;;;;;;;;;;5075212;28;20180;-76
2024/02/23 09:23:03;;;;;;;4.00;0.83;;;;;;;;;;5075042;28;20424;-79
2024/02/23 09:25:28;;;;;;;3.13;0.60;;;;;;;;;;5075334;28;20461;-79
2024/02/23 09:27:57;;;;;;;2.30;0.60;;;;;;;;;;5073141;28;20924;-76
2024/02/23 09:30:23;;;;;;;2.40;0.40;;;;;;;;;;5075017;28;20757;-77
2024/02/23 09:32:49;;;;;;;2.37;0.43;;;;;;;;;;5074672;28;20554;-81
2024/02/23 09:35:15;;;;;;;6.37;0.80;;;;;;;;;;5074992;28;20511;-79
2024/02/23 09:37:44;;;;;;;2.70;0.63;;;;;;;;;;5075040;28;20583;-77
2024/02/23 09:40:10;;;;;;;2.97;0.40;;;;;;;;;;5074926;28;20411;-78
2024/02/23 09:42:38;;;;;;;3.47;0.97;;;;;;;;;;5074913;28;20406;-76
2024/02/23 09:45:05;;;;;;;2.43;0.37;;;;;;;;;;5074693;28;20871;-79
2024/02/23 09:47:31;;;;;;;2.87;0.67;;;;;;;;;;5074699;28;20443;-78
2024/02/23 09:49:57;;;;;;;2.30;0.30;;;;;;;;;;5073068;28;20825;-81
2024/02/23 09:52:23;;;;;;;4.30;0.47;;;;;;;;;;5074605;28;20412;-77
2024/02/23 09:54:49;;;;;;;2.73;0.57;;;;;;;;;;5074478;28;20471;-76
2024/02/23 09:57:19;;;;;;;2.83;0.67;;;;;;;;;;5074536;28;20404;-79
2024/02/23 09:59:45;;;;;;;3.20;0.60;;;;;;;;;;5074508;28;20415;-77
2024/02/23 10:02:15;;;;;;;4.73;0.37;;;;;;;;;;5074297;28;20904;-81
2024/02/23 10:04:43;;;;;;;2.57;0.50;;;;;;;;;;5072687;28;20430;-80
2024/02/23 10:07:09;;;;;;;2.17;0.23;;;;;;;;;;5073997;28;20409;-76
2024/02/23 10:09:35;;;;;;;3.30;0.67;;;;;;;;;;5074288;28;20412;-82
2024/02/23 10:12:02;;;;;;;2.73;0.47;;;;;;;;;;5074107;28;20478;-79
2024/02/23 10:14:28;;;;;;;3.57;0.63;;;;;;;;;;5072888;28;20857;-82
2024/02/23 10:16:55;;;;;;;5.20;0.97;;;;;;;;;;5074920;28;20407;-82
2024/02/23 10:19:21;;;;;;;2.53;0.63;;;;;;;;;;5073518;28;20414;-82
2024/02/23 10:21:50;;;;;;;4.20;0.73;;;;;;;;;;5074798;28;20898;-83
2024/02/23 10:24:18;;;;;;;3.83;0.40;;;;;;;;;;5074606;28;20651;-82
2024/02/23 10:26:44;;;;;;;2.47;0.47;;;;;;;;;;5073285;28;20765;-82
2024/02/23 10:29:10;;;;;;;2.67;0.60;;;;;;;;;;5074242;28;20421;-83
2024/02/23 10:31:40;;;;;;;1.27;0.33;;;;;;;;;;5074158;28;20473;-82
2024/02/23 10:34:11;;;;;;;3.87;1.17;;;;;;;;;;5054979;28;20474;-82
2024/02/23 10:36:37;;;;;;;4.43;0.40;;;;;;;;;;5054146;28;20443;-81
2024/02/23 10:39:07;;;;;;;3.10;0.37;;;;;;;;;;5054319;28;20419;-78
2024/02/23 10:41:36;;;;;;;3.97;0.40;;;;;;;;;;5054514;28;20422;-82
2024/02/23 10:44:06;;;;;;;2.00;0.40;;;;;;;;;;5054143;28;20492;-83
2024/02/23 10:46:32;;;;;;;3.60;0.47;;;;;;;;;;5054321;28;20421;-82
2024/02/23 10:48:59;;;;;;;3.00;0.57;;;;;;;;;;5054129;28;20426;-82
2024/02/23 10:51:25;;;;;;;3.07;0.63;;;;;;;;;;5054303;28;20449;-80
2024/02/23 10:53:53;;;;;;;2.43;0.50;;;;;;;;;;5053867;28;20542;-83
2024/02/23 10:56:19;;;;;;;2.93;0.27;;;;;;;;;;5054188;28;20426;-82
2024/02/23 10:58:45;;;;;;;3.80;0.37;;;;;;;;;;5054245;28;20414;-82
2024/02/23 11:01:12;;;;;;;2.27;0.20;;;;;;;;;;5054439;28;20423;-82
2024/02/23 11:03:38;;;;;;;2.67;0.50;;;;;;;;;;5053056;28;20425;-76
2024/02/23 11:06:07;;;;;;;5.83;0.50;;;;;;;;;;5053288;28;20504;-80
2024/02/23 11:08:36;;;;;;;1.23;0.20;;;;;;;;;;5053328;28;20413;-76
2024/02/23 11:11:13;;;;;;;3.13;0.43;;;;;;;;;;5052603;28;20397;-77
2024/02/23 11:13:39;;;;;;;2.83;0.47;;;;;;;;;;5052942;28;20815;-79
2024/02/23 11:16:06;;;;;;;5.13;0.60;;;;;;;;;;5052803;28;20524;-80
2024/02/23 11:18:32;;;;;;;3.30;0.30;;;;;;;;;;5052676;28;20411;-77
2024/02/23 11:21:01;;;;;;;5.00;0.30;;;;;;;;;;5052940;28;20420;-81
2024/02/23 11:23:27;;;;;;;3.70;0.40;;;;;;;;;;5052930;28;20444;-79
2024/02/23 11:26:06;;;;;;;2.93;0.77;;;;;;;;;;5052934;28;20424;-81
2024/02/23 11:28:32;;;;;;;5.00;0.60;;;;;;;;;;5051617;28;20429;-81
2024/02/23 11:31:02;;;;;;;4.03;0.50;;;;;;;;;;5052046;28;20957;-80
2024/02/23 11:33:28;;;;;;;2.10;0.20;;;;;;;;;;5052502;28;20461;-80
2024/02/23 11:35:55;;;;;;;3.60;0.20;;;;;;;;;;5052676;28;20899;-80
2024/02/23 11:38:21;;;;;;;2.43;0.80;;;;;;;;;;5052877;28;20405;-77
2024/02/23 11:40:48;;;;;;;3.50;0.57;;;;;;;;;;5052712;28;20573;-80
2024/02/23 11:43:14;;;;;;;3.03;0.20;;;;;;;;;;5051386;28;20943;-76
2024/02/23 11:45:41;;;;;;;4.07;0.30;;;;;;;;;;5052674;28;20507;-74
2024/02/23 11:48:10;;;;;;;3.77;0.30;;;;;;;;;;5052284;28;20407;-75
2024/02/23 11:50:36;;;;;;;2.30;0.33;;;;;;;;;;5051281;28;20526;-77
2024/02/23 11:53:03;;;;;;;0.93;0.50;;;;;;;;;;5052629;28;20411;-78
2024/02/23 11:55:29;;;;;;;2.47;0.40;;;;;;;;;;5052482;28;20464;-75
2024/02/23 11:57:55;;;;;;;2.03;0.37;;;;;;;;;;5051320;28;20486;-74
2024/02/23 12:00:21;;;;;;;4.90;0.40;;;;;;;;;;5052433;28;20914;-76
2024/02/23 12:02:49;;;;;;;1.60;0.23;;;;;;;;;;5052031;28;20413;-74
2024/02/23 12:05:15;;;;;;;1.23;0.20;;;;;;;;;;5052465;28;20895;-76
2024/02/23 12:07:41;;;;;;;2.13;0.27;;;;;;;;;;5052403;28;20475;-75
2024/02/23 12:10:08;;;;;;;1.00;0.30;;;;;;;;;;5052354;28;20908;-75
2024/02/23 12:12:34;;;;;;;2.40;0.90;;;;;;;;;;5052349;28;20482;-75
2024/02/23 12:15:00;;;;;;;1.80;0.30;;;;;;;;;;5062034;28;20484;-75
2024/02/23 12:17:29;;;;;;;4.67;0.90;;;;;;;;;;5066199;28;20415;-75
2024/02/23 12:19:59;;;;;;;1.83;0.20;;;;;;;;;;5072659;28;20416;-75
2024/02/23 12:22:25;;;;;;;2.03;0.27;;;;;;;;;;5072518;28;20415;-75
2024/02/23 12:24:51;;;;;;;2.23;0.50;;;;;;;;;;5072423;28;20768;-76
2024/02/23 12:27:21;;;;;;;5.67;0.30;;;;;;;;;;5062920;28;20422;-76
2024/02/23 12:29:54;;;;;;;2.73;0.20;;;;;;;;;;5050912;28;20479;-76
2024/02/23 12:32:22;;;;;;;4.40;0.33;;;;;;;;;;5051506;28;20914;-77
2024/02/23 12:34:49;;;;;;;2.43;0.20;;;;;;;;;;5040498;28;20477;-76
2024/02/23 12:37:18;;;;;;;2.13;0.30;;;;;;;;;;5038568;28;20476;-76
2024/02/23 12:39:45;;;;;;;1.00;0.20;;;;;;;;;;5032187;28;20415;-75
2024/02/23 12:42:11;;;;;;;1.70;0.50;;;;;;;;;;5033398;28;20401;-77
2024/02/23 12:44:37;;;;;;;2.30;0.20;;;;;;;;;;5035939;28;20421;-77
2024/02/23 12:47:03;;;;;;;3.30;0.60;;;;;;;;;;5035829;28;20409;-76
2024/02/23 12:49:29;;;;;;;1.90;0.20;;;;;;;;;;5035513;28;20402;-76
2024/02/23 12:51:55;;;;;;;5.40;0.73;;;;;;;;;;5035992;28;20745;-77
2024/02/23 12:54:21;;;;;;;3.37;0.30;;;;;;;;;;5035529;28;20473;-78
2024/02/23 12:56:47;;;;;;;2.30;0.20;;;;;;;;;;5035682;28;20399;-76
2024/02/23 12:59:13;;;;;;;1.50;0.20;;;;;;;;;;5035845;28;20212;-76
2024/02/23 13:01:39;;;;;;;1.80;0.20;;;;;;;;;;5034411;28;20314;-78
2024/02/23 13:04:12;;;;;;;0.57;0.30;;;;;;;;;;5035180;28;20512;-77
2024/02/23 13:06:39;;;;;;;1.80;0.50;;;;;;;;;;5035657;28;20438;-77
2024/02/23 13:09:07;;;;;;;3.33;0.30;;;;;;;;;;5035507;28;20427;-76
2024/02/23 13:11:34;;;;;;;2.60;0.73;;;;;;;;;;5035431;28;20424;-78
2024/02/23 13:14:00;;;;;;;1.77;0.20;;;;;;;;;;5035205;28;20461;-75
2024/02/23 13:16:26;;;;;;;2.30;0.30;;;;;;;;;;5035401;28;20427;-76
2024/02/23 13:18:52;;;;;;;1.23;0.20;;;;;;;;;;5035033;28;20180;-79
2024/02/23 13:21:18;;;;;;;2.87;0.30;;;;;;;;;;5035499;28;20187;-76
2024/02/23 13:23:44;;;;;;;1.67;0.20;;;;;;;;;;5035444;28;20403;-80
2024/02/23 13:26:10;;;;;;;3.90;0.20;;;;;;;;;;5035202;28;20817;-77
2024/02/23 13:28:36;;;;;;;2.30;0.50;;;;;;;;;;5035250;28;20907;-76
2024/02/23 13:31:02;;;;;;;0.70;0.20;;;;;;;;;;5035007;28;20461;-76
2024/02/23 13:33:29;;;;;;;2.40;0.30;;;;;;;;;;5061181;28;20503;-76
2024/02/23 13:35:55;;;;;;;1.43;0.20;;;;;;;;;;5075025;28;20430;-77
2024/02/23 13:38:21;;;;;;;1.80;0.20;;;;;;;;;;5074879;28;20756;-79
2024/02/23 13:40:47;;;;;;;1.73;0.20;;;;;;;;;;5074896;28;20423;-76
2024/02/23 13:43:13;;;;;;;0.90;0.20;;;;;;;;;;5074778;28;20733;-75
2024/02/23 13:45:49;;;;;;;2.67;0.20;;;;;;;;;;5066764;28;20416;-76
2024/02/23 13:48:18;;;;;;;1.77;0.30;;;;;;;;;;5065023;28;20412;-75
2024/02/23 13:50:45;;;;;;;1.57;0.20;;;;;;;;;;5054505;28;20917;-77
2024/02/23 13:53:12;;;;;;;2.93;0.53;;;;;;;;;;5054399;28;20419;-76
2024/02/23 13:55:38;;;;;;;2.70;0.33;;;;;;;;;;5054671;28;20479;-76
2024/02/23 13:58:04;;;;;;;3.80;0.40;;;;;;;;;;5053273;28;20501;-76
2024/02/23 14:00:30;;;;;;;2.20;0.20;;;;;;;;;;5053510;28;20426;-77
2024/02/23 14:02:56;;;;;;;1.90;0.43;;;;;;;;;;5054665;28;20424;-76
2024/02/23 14:05:25;;;;;;;2.57;0.23;;;;;;;;;;5055079;28;20416;-75
2024/02/23 14:07:51;;;;;;;3.87;0.20;;;;;;;;;;5054822;28;20500;-75
2024/02/23 14:10:17;;;;;;;3.07;0.20;;;;;;;;;;5055096;28;20478;-77
2024/02/23 14:12:43;;;;;;;2.90;0.20;;;;;;;;;;5054965;28;20446;-76
2024/02/23 14:15:12;;;;;;;7.40;0.37;;;;;;;;;;5054940;28;20473;-76
2024/02/23 14:52:57;;;;;;;1.60;0.57;;;;;;;;;;5110807;27;20476;-78
2024/02/23 14:55:23;;;;;;;1.77;0.60;;;;;;;;;;5109361;28;20537;-78
2024/02/23 14:57:48;;;;;;;3.37;0.57;;;;;;;;;;5109919;28;20426;-76
2024/02/23 15:00:15;;;;;;;1.83;0.47;;;;;;;;;;5109164;28;20411;-76
2024/02/23 15:02:44;;;;;;;1.23;0.60;;;;;;;;;;5110048;28;20416;-77
2024/02/23 15:05:10;;;;;;;1.17;0.30;;;;;;;;;;5110449;28;20912;-76
2024/02/23 15:07:37;;;;;;;1.43;0.60;;;;;;;;;;5110364;28;20866;-81
2024/02/23 15:10:08;;;;;;;1.60;0.20;;;;;;;;;;5110235;28;20930;-78
2024/02/23 15:12:37;;;;;;;1.90;0.73;;;;;;;;;;5110404;28;20469;-80
2024/02/23 15:15:03;;;;;;;1.27;0.40;;;;;;;;;;5110235;28;20454;-76